Terminal Aerodrome Forecast
Issued by NWS Wilmington, OH

Current Version | Previous Version | Graphics & Text | Print | Product List | Glossary On
Versions: 1 2 3 4 5 6 7 8 9 10 11 12 13 14 15 16 17 18 19 20 21 22 23 24 25 26 27 28 29 30 31 32 33
530
FTUS41 KILN 231041 AAB
TAFILN
TAF AMD
KILN 231041Z 2311/2406 21012G20KT P6SM VCSH OVC009
     FM231300 22014G20KT 5SM SHRA BR OVC015
      TEMPO 2314/2318 3SM TSRA OVC010CB
     FM232100 23009KT P6SM -SHRA OVC020
     FM240100 30009KT P6SM BKN010=

USA.gov is the U.S. government's official web portal to all federal, state and local government web resources and services.